West Little Rock, Arkansas
Current Conditions -  °F | °C
As of 12:53 PM on Monday 20 Oct 2014 (Local Time) from KLIT Reporting Station
Overcast Overcast  
Wind Chill: 68°   Ceiling: 3500
Heat Index: 68°   Visibility: 10mi
Dew Point: 51°   Wind: 7mph
Humidity: 55%   Direction: 240°WSW
Pressure: 30.08"   Gusts: NA
Location:  34.78°N, 92.27°W
Report Text: KLIT 201753Z 24006KT 10SM BKN035 OVC050 20/11 A3008 RMK AO2 SLP188 T02000106 10200 20094 58009
Loading
Personal Weather Stations






























Interactive Weather Map
Tropical Storm Tracking
New forecast layout! Learn more

10-Day Weather Forecast

Advertisements
Track Severe Weather on mobile